Time;durP1;ratioP1;P1;durP2;ratioP2;P2;SDS_P1;SDS_P2;PMS_P1;PMS_P2;Temp;Humidity;BMP_temperature;BMP_pressure;BME280_temperature;BME280_humidity;BME280_pressure;Samples;Min_cycle;Max_cycle;Signal;HPM_P1;HPM_P2
2023/05/27 00:01:43;;;;;;;;;;;;;;;10.11;59.95;102862.91;5052797;28;20394;-74
2023/05/27 00:04:08;;;;;;;;;;;;;;;10.09;61.00;102863.75;5053121;28;19923;-75
2023/05/27 00:06:35;;;;;;;;;;;;;;;10.05;60.20;102864.56;5049790;28;20364;-74
2023/05/27 00:09:00;;;;;;;;;;;;;;;10.01;61.49;102855.69;5052839;28;19939;-74
2023/05/27 00:11:26;;;;;;;;;;;;;;;9.99;60.37;102859.19;5038006;28;19916;-74
2023/05/27 00:13:51;;;;;;;;;;;;;;;9.95;60.88;102860.91;5052471;28;20307;-74
2023/05/27 00:16:17;;;;;;;;;;;;;;;9.90;61.09;102858.19;5052941;28;19943;-75
2023/05/27 00:18:42;;;;;;;;;;;;;;;9.85;60.28;102854.59;5051429;28;19923;-75
2023/05/27 00:21:08;;;;;;;;;;;;;;;9.82;61.39;102851.03;5052836;28;19975;-74
2023/05/27 00:23:33;;;;;;;;;;;;;;;9.78;61.86;102854.50;5052243;28;19931;-74
2023/05/27 00:25:58;;;;;;;;;;;;;;;9.73;60.15;102849.16;5052633;28;19923;-74
2023/05/27 00:28:24;;;;;;;;;;;;;;;9.69;61.93;102850.88;5052396;28;19990;-74
2023/05/27 00:30:49;;;;;;;;;;;;;;;9.65;60.75;102848.16;5051103;28;19920;-75
2023/05/27 00:33:15;;;;;;;;;;;;;;;9.61;61.75;102849.84;5050974;28;20457;-74
2023/05/27 00:35:41;;;;;;;;;;;;;;;9.55;62.42;102840.97;5052401;28;19933;-74
2023/05/27 00:38:06;;;;;;;;;;;;;;;9.48;61.04;102846.16;5052603;28;20279;-70
2023/05/27 00:40:34;;;;;;;;;;;;;;;9.41;62.02;102844.28;5051979;28;20316;-70
2023/05/27 00:42:59;;;;;;;;;;;;;;;9.39;63.42;102843.34;5052145;28;20470;-70
2023/05/27 00:45:26;;;;;;;;;;;;;;;9.37;62.92;102841.56;5050705;28;19920;-70
2023/05/27 00:47:51;;;;;;;;;;;;;;;9.37;61.78;102849.50;5052024;28;19939;-70
2023/05/27 00:50:18;;;;;;;;;;;;;;;9.35;61.75;102848.59;5042966;28;20360;-70
2023/05/27 00:52:43;;;;;;;;;;;;;;;9.30;61.59;102835.31;5045589;28;20393;-70
2023/05/27 00:55:09;;;;;;;;;;;;;;;9.29;60.66;102837.91;5051987;28;20039;-70
2023/05/27 00:57:34;;;;;;;;;;;;;;;9.29;62.38;102838.81;5022266;28;20319;-70
2023/05/27 01:00:00;;;;;;;;;;;;;;;9.29;62.07;102835.28;5041468;28;19955;-70
2023/05/27 01:02:25;;;;;;;;;;;;;;;9.27;62.19;102827.31;5040707;28;20372;-70
2023/05/27 01:04:51;;;;;;;;;;;;;;;9.21;62.82;102825.47;5046117;28;20189;-70
2023/05/27 01:07:27;;;;;;;;;;;;;;;9.17;61.93;102828.94;5051713;28;19924;-70
2023/05/27 01:10:07;;;;;;;;;;;;;;;9.12;61.93;102819.16;5033901;28;20371;-70
2023/05/27 01:12:51;;;;;;;;;;;;;;;9.07;63.72;102829.63;5041420;28;20314;-70
2023/05/27 01:15:18;;;;;;;;;;;;;;;9.01;60.91;102827.78;5047530;28;19928;-69
2023/05/27 01:17:44;;;;;;;;;;;;;;;9.01;63.80;102825.16;5050399;28;19928;-70
2023/05/27 01:20:10;;;;;;;;;;;;;;;9.00;60.57;102825.13;5049902;28;20394;-70
2023/05/27 01:22:36;;;;;;;;;;;;;;;8.98;62.92;102830.41;5050196;28;19947;-70
2023/05/27 01:25:03;;;;;;;;;;;;;;;8.97;64.40;102833.88;5050117;28;20368;-70
2023/05/27 01:27:28;;;;;;;;;;;;;;;8.95;62.20;102827.72;5049746;28;19924;-70
2023/05/27 01:29:56;;;;;;;;;;;;;;;8.91;62.62;102823.22;5038573;28;19917;-69
2023/05/27 01:32:32;;;;;;;;;;;;;;;8.89;62.94;102817.03;5033960;28;19925;-70
2023/05/27 01:35:06;;;;;;;;;;;;;;;8.87;62.00;102813.47;5050206;28;20002;-70
2023/05/27 01:37:33;;;;;;;;;;;;;;;8.86;62.12;102816.97;5045322;28;19917;-70
2023/05/27 01:39:59;;;;;;;;;;;;;;;8.86;62.18;102822.25;5057537;28;19959;-70
2023/05/27 01:42:27;;;;;;;;;;;;;;;8.83;62.20;102819.56;5049459;28;19928;-70
2023/05/27 01:44:53;;;;;;;;;;;;;;;8.80;62.49;102812.50;5045869;28;20390;-70
2023/05/27 01:47:19;;;;;;;;;;;;;;;8.77;61.74;102812.41;5049875;28;19920;-70
2023/05/27 01:49:44;;;;;;;;;;;;;;;8.76;64.25;102810.66;5050946;28;20390;-70
2023/05/27 01:52:10;;;;;;;;;;;;;;;8.74;64.80;102817.66;5049704;28;19967;-70
2023/05/27 01:54:36;;;;;;;;;;;;;;;8.70;62.92;102812.28;5049626;28;19955;-69
2023/05/27 01:57:03;;;;;;;;;;;;;;;8.65;62.97;102819.25;5049802;28;19921;-70
2023/05/27 01:59:28;;;;;;;;;;;;;;;8.61;63.34;102813.91;5044036;28;20075;-70
2023/05/27 02:01:53;;;;;;;;;;;;;;;8.57;63.76;102820.00;5042264;28;20078;-75
2023/05/27 02:04:19;;;;;;;;;;;;;;;8.55;63.23;102808.50;5053682;28;19921;-74
2023/05/27 02:06:44;;;;;;;;;;;;;;;8.51;62.42;102809.31;5054354;28;20389;-74
2023/05/27 02:09:12;;;;;;;;;;;;;;;8.48;63.03;102816.28;5053314;28;19917;-74
2023/05/27 02:11:39;;;;;;;;;;;;;;;8.46;64.71;102818.91;5055112;28;19940;-74
2023/05/27 02:14:05;;;;;;;;;;;;;;;8.43;64.54;102818.84;5055009;28;19913;-74
2023/05/27 02:16:33;;;;;;;;;;;;;;;8.40;65.23;102822.31;5054689;28;19929;-74
2023/05/27 02:19:00;;;;;;;;;;;;;;;8.37;64.93;102821.34;5053377;28;19928;-74
2023/05/27 02:21:26;;;;;;;;;;;;;;;8.33;64.53;102823.06;5033419;28;19948;-74
2023/05/27 02:23:52;;;;;;;;;;;;;;;8.32;64.93;102813.34;5053559;28;19942;-74
2023/05/27 02:26:17;;;;;;;;;;;;;;;8.32;65.30;102817.72;5053304;28;20000;-74
2023/05/27 02:28:42;;;;;;;;;;;;;;;8.28;64.37;102814.13;5053115;28;19921;-74
2023/05/27 02:31:08;;;;;;;;;;;;;;;8.25;66.02;102813.19;5053353;28;20291;-74
2023/05/27 02:33:36;;;;;;;;;;;;;;;8.21;65.54;102822.81;5069961;28;19916;-74
2023/05/27 02:36:02;;;;;;;;;;;;;;;8.21;65.10;102808.69;5057689;28;19928;-74
2023/05/27 02:38:28;;;;;;;;;;;;;;;8.22;65.35;102811.38;5053123;28;20009;-74
2023/05/27 02:40:53;;;;;;;;;;;;;;;8.21;66.15;102814.91;5053006;28;19925;-74
2023/05/27 02:43:19;;;;;;;;;;;;;;;8.17;66.11;102818.31;5053417;28;20376;-74
2023/05/27 02:45:45;;;;;;;;;;;;;;;8.12;68.15;102817.34;5053393;28;19927;-74
2023/05/27 02:48:10;;;;;;;;;;;;;;;8.11;64.72;102827.00;5052936;28;19927;-74
2023/05/27 02:50:37;;;;;;;;;;;;;;;8.10;65.66;102822.56;5069938;28;19999;-74
2023/05/27 02:53:03;;;;;;;;;;;;;;;8.11;66.85;102831.38;5057308;28;20055;-74
2023/05/27 02:55:28;;;;;;;;;;;;;;;8.09;66.21;102831.38;5065729;28;19921;-75
2023/05/27 02:57:53;;;;;;;;;;;;;;;8.06;67.97;102833.94;5054120;28;19979;-75
2023/05/27 03:00:19;;;;;;;;;;;;;;;8.04;68.19;102838.31;5051650;28;19916;-74
2023/05/27 03:02:44;;;;;;;;;;;;;;;8.03;68.14;102828.59;5054000;28;19947;-74
2023/05/27 03:05:10;;;;;;;;;;;;;;;8.02;67.37;102837.38;5064654;28;20016;-74
2023/05/27 03:07:35;;;;;;;;;;;;;;;8.00;67.35;102846.13;5069372;28;19971;-74
2023/05/27 03:10:00;;;;;;;;;;;;;;;7.97;65.98;102842.56;5053912;28;20039;-75
2023/05/27 03:12:26;;;;;;;;;;;;;;;7.92;66.93;102838.94;5053764;28;19921;-74
2023/05/27 03:14:51;;;;;;;;;;;;;;;7.90;67.85;102838.00;5068228;28;20379;-74
2023/05/27 03:17:18;;;;;;;;;;;;;;;7.89;66.23;102836.22;5052367;28;19923;-74
2023/05/27 03:19:45;;;;;;;;;;;;;;;7.89;68.25;102830.97;5052555;28;19974;-74
2023/05/27 03:22:11;;;;;;;;;;;;;;;7.88;68.63;102836.19;5056180;28;20412;-74
2023/05/27 03:24:36;;;;;;;;;;;;;;;7.83;68.96;102825.53;5053830;28;19976;-75
2023/05/27 03:27:03;;;;;;;;;;;;;;;7.79;69.15;102830.72;5068964;28;20011;-75
2023/05/27 03:29:30;;;;;;;;;;;;;;;7.74;68.76;102818.34;5019001;28;19913;-75
2023/05/27 03:31:56;;;;;;;;;;;;;;;7.78;69.97;102819.28;5058198;28;19975;-75
2023/05/27 03:34:22;;;;;;;;;;;;;;;7.81;69.22;102816.69;5050355;28;20329;-74
2023/05/27 03:36:49;;;;;;;;;;;;;;;7.80;69.36;102814.94;5068959;28;20000;-74
2023/05/27 03:39:16;;;;;;;;;;;;;;;7.80;68.71;102819.31;5068624;28;19929;-75
2023/05/27 03:41:49;;;;;;;;;;;;;;;7.78;71.38;102816.63;5036394;28;19925;-75
2023/05/27 03:44:16;;;;;;;;;;;;;;;7.77;70.76;102814.00;5068241;28;19928;-74
2023/05/27 03:46:41;;;;;;;;;;;;;;;7.75;70.38;102806.91;5068762;28;20067;-74
2023/05/27 03:49:07;;;;;;;;;;;;;;;7.74;69.51;102809.53;5068390;28;19928;-74
2023/05/27 03:51:32;;;;;;;;;;;;;;;7.73;69.87;102805.97;5068628;28;20047;-74
2023/05/27 03:53:57;;;;;;;;;;;;;;;7.73;71.01;102805.97;5043943;28;19920;-74
2023/05/27 03:56:23;;;;;;;;;;;;;;;7.73;71.11;102805.09;5051676;28;20513;-74
2023/05/27 03:58:49;;;;;;;;;;;;;;;7.71;70.76;102798.91;5051222;28;19951;-75
2023/05/27 04:01:16;;;;;;;;;;;;;;;7.70;70.30;102803.28;5052930;28;19917;-74
2023/05/27 04:03:43;;;;;;;;;;;;;;;7.71;70.77;102798.91;5051602;28;20019;-75
2023/05/27 04:06:09;;;;;;;;;;;;;;;7.70;68.32;102792.75;5053164;28;19920;-74
2023/05/27 04:08:35;;;;;;;;;;;;;;;7.68;68.36;102799.72;5053038;28;20287;-74
2023/05/27 04:11:02;;;;;;;;;;;;;;;7.69;70.35;102801.53;5051553;28;19963;-74
2023/05/27 04:13:27;;;;;;;;;;;;;;;7.72;70.01;102805.97;5051242;28;19951;-74
2023/05/27 04:15:53;;;;;;;;;;;;;;;7.71;69.82;102798.91;5065263;28;19921;-74
2023/05/27 04:18:20;;;;;;;;;;;;;;;7.71;70.13;102799.78;5051381;28;20347;-75
2023/05/27 04:20:47;;;;;;;;;;;;;;;7.71;70.08;102797.16;5054071;28;20056;-74
2023/05/27 04:23:13;;;;;;;;;;;;;;;7.72;70.16;102798.94;5060367;28;20333;-75
2023/05/27 04:25:39;;;;;;;;;;;;;;;7.77;71.30;102801.69;5051119;28;19964;-75
2023/05/27 04:28:05;;;;;;;;;;;;;;;7.75;72.27;102799.00;5052576;28;20046;-75
2023/05/27 04:30:33;;;;;;;;;;;;;;;7.74;72.07;102799.00;5051236;28;20020;-74
2023/05/27 04:33:00;;;;;;;;;;;;;;;7.75;71.55;102785.81;5047434;28;19923;-75
2023/05/27 04:35:25;;;;;;;;;;;;;;;7.79;71.31;102791.13;5051341;28;19947;-75
2023/05/27 04:37:51;;;;;;;;;;;;;;;7.78;71.41;102784.09;5050983;28;19921;-74
2023/05/27 04:40:19;;;;;;;;;;;;;;;7.78;71.92;102779.72;5051011;28;19924;-74
2023/05/27 04:43:05;;;;;;;;;;;;;;;7.79;72.72;102784.16;5052019;28;20051;-75
2023/05/27 04:45:31;;;;;;;;;;;;;;;7.80;71.61;102783.28;5058693;28;19920;-74
2023/05/27 04:47:58;;;;;;;;;;;;;;;7.83;72.72;102780.69;5050797;28;20323;-71
2023/05/27 04:50:24;;;;;;;;;;;;;;;7.88;71.86;102778.16;5050822;28;19921;-71
2023/05/27 04:52:50;;;;;;;;;;;;;;;7.92;73.03;102775.63;5060066;28;20222;-71
2023/05/27 04:55:15;;;;;;;;;;;;;;;7.94;71.96;102776.53;5062326;28;19983;-71
2023/05/27 04:57:41;;;;;;;;;;;;;;;7.96;72.44;102772.19;5050457;28;20314;-75
2023/05/27 05:02:38;;;;;;;;;;;;;;;8.06;72.46;102772.34;5050515;28;19928;-75
2023/05/27 05:05:09;;;;;;;;;;;;;;;8.12;72.97;102776.00;5048272;28;20058;-74
2023/05/27 05:07:40;;;;;;;;;;;;;;;8.19;72.26;102777.03;5034032;28;19924;-75
2023/05/27 05:10:07;;;;;;;;;;;;;;;8.24;72.40;102766.56;5050483;28;19916;-75
2023/05/27 05:12:37;;;;;;;;;;;;;;;8.32;72.84;102770.22;5050338;28;20364;-75
2023/05/27 05:15:02;;;;;;;;;;;;;;;8.39;71.37;102766.81;5050438;28;19917;-75
2023/05/27 05:17:28;;;;;;;;;;;;;;;8.46;70.05;102763.47;5052997;28;19921;-75
2023/05/27 05:19:54;;;;;;;;;;;;;;;8.51;68.07;102771.47;5067185;28;19928;-75
2023/05/27 05:22:22;;;;;;;;;;;;;;;8.58;71.23;102765.41;5067060;28;19920;-75
2023/05/27 05:24:48;;;;;;;;;;;;;;;8.66;72.29;102766.44;5060582;28;20387;-75
2023/05/27 05:27:15;;;;;;;;;;;;;;;8.76;71.98;102770.13;5050290;28;19967;-75
2023/05/27 05:29:41;;;;;;;;;;;;;;;8.83;71.81;102766.72;5051691;28;19947;-75
2023/05/27 05:32:08;;;;;;;;;;;;;;;8.90;72.21;102763.34;5033966;28;19925;-75
2023/05/27 05:34:34;;;;;;;;;;;;;;;8.96;73.33;102766.06;5032940;28;20360;-75
2023/05/27 05:37:02;;;;;;;;;;;;;;;8.96;71.88;102763.41;5055223;28;19932;-75
2023/05/27 05:39:28;;;;;;;;;;;;;;;9.03;72.90;102760.00;5048809;28;20003;-76
2023/05/27 05:41:55;;;;;;;;;;;;;;;9.12;72.64;102751.31;5059505;28;20039;-75
2023/05/27 05:44:22;;;;;;;;;;;;;;;9.20;71.74;102751.44;5050033;28;19979;-75
2023/05/27 05:46:49;;;;;;;;;;;;;;;9.29;72.94;102756.84;5061305;28;19917;-75
2023/05/27 05:49:17;;;;;;;;;;;;;;;9.35;73.26;102754.28;5050059;28;19921;-75
2023/05/27 05:51:44;;;;;;;;;;;;;;;9.42;72.28;102750.88;5049819;28;20288;-75
2023/05/27 05:54:09;;;;;;;;;;;;;;;9.51;71.76;102746.56;5051368;28;19923;-75
2023/05/27 05:56:41;;;;;;;;;;;;;;;9.60;70.41;102738.75;5036181;28;19920;-76
2023/05/27 05:59:07;;;;;;;;;;;;;;;9.69;68.04;102737.13;5049305;28;19940;-75
2023/05/27 06:01:32;;;;;;;;;;;;;;;9.79;66.98;102742.50;5049936;28;20328;-75
2023/05/27 06:03:59;;;;;;;;;;;;;;;9.85;66.87;102734.63;5059693;28;19921;-75
2023/05/27 06:06:30;;;;;;;;;;;;;;;9.93;71.45;102740.91;5049927;28;19929;-75
2023/05/27 06:09:16;;;;;;;;;;;;;;;9.97;71.02;102741.84;5058115;28;19927;-75
2023/05/27 06:11:41;;;;;;;;;;;;;;;10.04;70.40;102741.91;5049957;28;20295;-75
2023/05/27 06:14:07;;;;;;;;;;;;;;;10.14;70.60;102742.91;5049778;28;19919;-75
2023/05/27 06:16:35;;;;;;;;;;;;;;;10.26;71.10;102739.47;5050203;28;19950;-75
2023/05/27 06:19:01;;;;;;;;;;;;;;;10.32;68.55;102737.81;5049890;28;20284;-74
2023/05/27 06:21:26;;;;;;;;;;;;;;;10.39;69.37;102738.78;5049868;28;19927;-75
2023/05/27 06:24:15;;;;;;;;;;;;;;;10.50;69.45;102736.19;5040323;28;20012;-75
2023/05/27 06:26:43;;;;;;;;;;;;;;;10.62;70.60;102743.38;5049772;28;20346;-75
2023/05/27 06:29:09;;;;;;;;;;;;;;;10.71;67.60;102727.56;5032821;28;19925;-75
2023/05/27 06:31:34;;;;;;;;;;;;;;;10.80;70.61;102722.31;5049764;28;19970;-75
2023/05/27 06:34:00;;;;;;;;;;;;;;;10.90;68.95;102720.63;5049551;28;20336;-75
2023/05/27 06:36:26;;;;;;;;;;;;;;;11.00;69.57;102714.50;5049987;28;19916;-75
2023/05/27 06:38:53;;;;;;;;;;;;;;;11.07;69.27;102720.72;5049475;28;20430;-75
2023/05/27 06:41:18;;;;;;;;;;;;;;;11.10;67.12;102724.31;5049434;28;19998;-75
2023/05/27 06:43:55;;;;;;;;;;;;;;;11.22;68.77;102726.13;5034242;28;20335;-75
2023/05/27 06:46:33;;;;;;;;;;;;;;;11.34;69.62;102722.66;5036526;28;20372;-75
2023/05/27 06:49:07;;;;;;;;;;;;;;;11.43;69.12;102721.81;5053218;28;19924;-75
2023/05/27 06:51:34;;;;;;;;;;;;;;;11.51;68.83;102718.31;5053144;28;19971;-75
2023/05/27 06:53:59;;;;;;;;;;;;;;;11.59;66.19;102716.56;5044874;28;19917;-75
2023/05/27 06:56:33;;;;;;;;;;;;;;;11.71;67.58;102702.44;5066204;28;19924;-75
2023/05/27 06:59:16;;;;;;;;;;;;;;;11.87;65.37;102698.13;5046191;28;20378;-75
2023/05/27 07:01:42;;;;;;;;;;;;;;;11.94;67.60;102696.34;5052743;28;19924;-75
2023/05/27 07:04:11;;;;;;;;;;;;;;;12.05;66.25;102703.47;5036735;28;19920;-75
2023/05/27 07:06:48;;;;;;;;;;;;;;;12.14;65.46;102702.59;5052987;28;19968;-75
2023/05/27 07:09:15;;;;;;;;;;;;;;;12.22;66.57;102703.50;5052551;28;19927;-75
2023/05/27 07:11:41;;;;;;;;;;;;;;;12.38;66.88;102696.41;5069441;28;19928;-75
2023/05/27 07:14:12;;;;;;;;;;;;;;;12.55;63.94;102690.22;5036535;28;19940;-75
2023/05/27 07:16:39;;;;;;;;;;;;;;;12.68;61.86;102690.22;5069516;28;19928;-75
2023/05/27 07:19:08;;;;;;;;;;;;;;;12.79;65.75;102695.50;5052451;28;19916;-75
2023/05/27 07:21:41;;;;;;;;;;;;;;;12.93;64.84;102695.47;5053027;28;19932;-75
2023/05/27 07:24:12;;;;;;;;;;;;;;;13.04;64.86;102696.34;5036705;28;19925;-75
2023/05/27 07:26:38;;;;;;;;;;;;;;;13.15;64.64;102690.97;5069186;28;20303;-75
2023/05/27 07:29:04;;;;;;;;;;;;;;;13.25;64.74;102683.84;5035992;28;19967;-75
2023/05/27 07:32:01;;;;;;;;;;;;;;;13.34;61.81;102679.41;5053677;28;20384;-75
2023/05/27 07:34:30;;;;;;;;;;;;;;;13.43;63.22;102680.28;5052214;28;19921;-75
2023/05/27 07:36:56;;;;;;;;;;;;;;;13.56;63.63;102689.97;5065573;28;19921;-76
2023/05/27 07:39:22;;;;;;;;;;;;;;;13.69;63.09;102682.81;5032944;28;19928;-75
2023/05/27 07:41:47;;;;;;;;;;;;;;;13.77;62.59;102680.97;5053552;28;20016;-75
2023/05/27 07:44:12;;;;;;;;;;;;;;;13.86;62.58;102674.72;5056692;28;20299;-75
2023/05/27 07:46:38;;;;;;;;;;;;;;;13.96;61.61;102673.78;5053685;28;19921;-75
2023/05/27 07:49:05;;;;;;;;;;;;;;;14.06;62.46;102666.59;5042051;28;20298;-75
2023/05/27 07:51:32;;;;;;;;;;;;;;;14.19;60.85;102673.59;5052053;28;20338;-75
2023/05/27 07:53:59;;;;;;;;;;;;;;;14.31;61.66;102660.16;5052132;28;19982;-75
2023/05/27 07:56:26;;;;;;;;;;;;;;;14.44;61.27;102655.66;5054356;28;19970;-75
2023/05/27 07:58:51;;;;;;;;;;;;;;;14.52;60.90;102658.25;5057771;28;19924;-75
2023/05/27 08:01:18;;;;;;;;;;;;;;;14.60;59.45;102659.06;5047689;28;19928;-74
2023/05/27 08:03:48;;;;;;;;;;;;;;;14.58;60.68;102659.06;5063065;28;19979;-74
2023/05/27 08:06:17;;;;;;;;;;;;;;;14.66;60.41;102651.00;5053279;28;19921;-74
2023/05/27 08:08:45;;;;;;;;;;;;;;;14.76;60.03;102654.47;5053320;28;20485;-74
2023/05/27 08:11:20;;;;;;;;;;;;;;;14.93;59.79;102656.94;5053081;28;20387;-74
2023/05/27 08:13:59;;;;;;;;;;;;;;;15.01;59.30;102650.63;5052663;28;20249;-75
2023/05/27 08:16:58;;;;;;;;;;;;;;;15.05;59.66;102644.34;5039258;28;20372;-75
2023/05/27 08:19:40;;;;;;;;;;;;;;;15.16;58.48;102643.38;5068281;28;20376;-75
2023/05/27 08:22:24;;;;;;;;;;;;;;;15.23;58.79;102637.94;5052784;28;19983;-74
2023/05/27 08:25:10;;;;;;;;;;;;;;;15.35;58.99;102628.84;5052483;28;19975;-75
2023/05/27 08:27:51;;;;;;;;;;;;;;;15.53;59.28;102622.41;5051285;28;20003;-75
2023/05/27 08:30:30;;;;;;;;;;;;;;;15.69;58.56;102612.38;5056650;28;19915;-75
2023/05/27 08:33:08;;;;;;;;;;;;;;;15.84;58.58;102609.50;5051141;28;19917;-75
2023/05/27 08:35:34;;;;;;;;;;;;;;;16.02;57.92;102604.75;5067920;28;19970;-75
2023/05/27 08:38:00;;;;;;;;;;;;;;;16.19;57.70;102602.69;5050991;28;19939;-75
2023/05/27 08:40:30;;;;;;;;;;;;;;;16.36;57.59;102597.03;5058205;28;20352;-75
2023/05/27 08:42:55;;;;;;;;;;;;;;;16.49;57.12;102598.59;5050680;28;19937;-75
2023/05/27 08:45:22;;;;;;;;;;;;;;;16.62;56.56;102595.69;5051131;28;20264;-75
2023/05/27 08:47:48;;;;;;;;;;;;;;;16.70;55.94;102593.75;5052553;28;19932;-75
2023/05/27 08:50:18;;;;;;;;;;;;;;;16.85;55.93;102589.91;5050856;28;19921;-75
2023/05/27 08:52:49;;;;;;;;;;;;;;;17.01;55.81;102585.13;5042422;28;20000;-75
2023/05/27 08:55:17;;;;;;;;;;;;;;;17.14;55.61;102583.97;5050529;28;20244;-75
2023/05/27 08:57:46;;;;;;;;;;;;;;;17.31;54.99;102580.88;5050527;28;19966;-75
2023/05/27 09:00:13;;;;;;;;;;;;;;;17.32;54.66;102585.34;5049608;28;19928;-76
2023/05/27 09:02:40;;;;;;;;;;;;;;;17.37;54.87;102575.41;5050485;28;20244;-76
2023/05/27 09:05:06;;;;;;;;;;;;;;;17.54;54.52;102575.03;5045374;28;19991;-75
2023/05/27 09:07:31;;;;;;;;;;;;;;;17.70;54.21;102572.84;5043147;28;19928;-75
2023/05/27 09:09:57;;;;;;;;;;;;;;;17.78;53.82;102577.13;5051763;28;20015;-75
2023/05/27 09:12:24;;;;;;;;;;;;;;;17.88;52.60;102574.22;5051723;28;19928;-75
2023/05/27 09:14:50;;;;;;;;;;;;;;;17.98;53.30;102567.75;5050624;28;19917;-75
2023/05/27 09:17:15;;;;;;;;;;;;;;;18.19;52.50;102567.16;5050115;28;19917;-76
2023/05/27 09:19:41;;;;;;;;;;;;;;;18.38;52.07;102564.00;5051833;28;19938;-76
2023/05/27 09:22:06;;;;;;;;;;;;;;;18.44;51.07;102553.09;5051673;28;19924;-75
2023/05/27 09:24:32;;;;;;;;;;;;;;;18.48;51.21;102558.34;5051367;28;19916;-75
2023/05/27 09:26:57;;;;;;;;;;;;;;;18.53;51.08;102558.22;5051699;28;19916;-76
2023/05/27 09:29:23;;;;;;;;;;;;;;;18.55;51.23;102552.81;5049979;28;19944;-76
2023/05/27 09:31:53;;;;;;;;;;;;;;;18.57;51.02;102548.25;5051735;28;19913;-75
2023/05/27 09:34:18;;;;;;;;;;;;;;;18.60;51.68;102549.06;5051246;28;19993;-75
2023/05/27 09:36:45;;;;;;;;;;;;;;;18.68;50.79;102548.84;5052057;28;20003;-76
2023/05/27 09:39:11;;;;;;;;;;;;;;;18.77;50.77;102547.72;5051305;28;19916;-76
2023/05/27 09:41:37;;;;;;;;;;;;;;;18.90;47.94;102533.03;5051415;28;19924;-75
2023/05/27 09:44:04;;;;;;;;;;;;;;;18.92;49.00;102536.56;5051242;28;19925;-75
2023/05/27 09:46:31;;;;;;;;;;;;;;;18.82;49.36;102538.63;5037580;28;19920;-75
2023/05/27 09:48:58;;;;;;;;;;;;;;;18.72;49.72;102534.44;5051412;28;19917;-75
2023/05/27 09:51:24;;;;;;;;;;;;;;;18.59;50.57;102541.06;5051182;28;20014;-75
2023/05/27 09:53:51;;;;;;;;;;;;;;;18.54;50.48;102535.81;5051062;28;19931;-75
2023/05/27 09:56:16;;;;;;;;;;;;;;;18.43;50.02;102537.94;5051191;28;19943;-76
2023/05/27 09:58:43;;;;;;;;;;;;;;;18.34;50.35;102525.66;5048658;28;19932;-75
2023/05/27 10:01:09;;;;;;;;;;;;;;;18.41;49.90;102529.03;5051000;28;19924;-75
2023/05/27 10:03:37;;;;;;;;;;;;;;;18.46;48.89;102527.13;5050769;28;20011;-75
2023/05/27 10:06:04;;;;;;;;;;;;;;;18.47;49.72;102527.09;5051100;28;19986;-75
2023/05/27 10:08:29;;;;;;;;;;;;;;;18.42;50.37;102525.44;5050805;28;19982;-75
2023/05/27 10:10:55;;;;;;;;;;;;;;;18.40;50.08;102524.63;5051127;28;19924;-75
2023/05/27 10:13:21;;;;;;;;;;;;;;;18.49;50.33;102524.34;5050859;28;19921;-75
2023/05/27 10:15:50;;;;;;;;;;;;;;;18.65;50.49;102512.25;5051135;28;20007;-75
2023/05/27 10:18:25;;;;;;;;;;;;;;;18.86;49.42;102508.06;5050698;28;20031;-75
2023/05/27 10:20:51;;;;;;;;;;;;;;;19.13;49.15;102508.16;5066271;28;20264;-75
2023/05/27 10:23:30;;;;;;;;;;;;;;;19.34;48.94;102502.13;5053752;28;19929;-75
2023/05/27 10:25:56;;;;;;;;;;;;;;;19.58;47.65;102501.34;5054686;28;19916;-75
2023/05/27 10:28:27;;;;;;;;;;;;;;;19.77;47.21;102503.41;5054966;28;20425;-75
2023/05/27 10:30:53;;;;;;;;;;;;;;;20.02;47.25;102496.31;5053671;28;20323;-75
2023/05/27 10:33:31;;;;;;;;;;;;;;;20.28;47.94;102495.38;5055137;28;19967;-75
2023/05/27 10:36:02;;;;;;;;;;;;;;;20.56;47.43;102497.97;5054820;28;19925;-75
2023/05/27 10:38:28;;;;;;;;;;;;;;;20.80;46.04;102493.47;5053463;28;19963;-75
2023/05/27 10:40:59;;;;;;;;;;;;;;;21.01;46.46;102484.53;5053373;28;19925;-75
2023/05/27 10:43:27;;;;;;;;;;;;;;;21.23;46.65;102479.16;5053820;28;20397;-75
2023/05/27 10:46:01;;;;;;;;;;;;;;;21.50;44.47;102472.72;5054689;28;19916;-76
2023/05/27 10:48:30;;;;;;;;;;;;;;;21.73;44.31;102485.22;5053062;28;19927;-75
2023/05/27 10:50:57;;;;;;;;;;;;;;;21.84;44.84;102475.75;5053280;28;19962;-75
2023/05/27 10:53:25;;;;;;;;;;;;;;;22.00;45.06;102470.53;5046071;28;20368;-75
2023/05/27 10:55:51;;;;;;;;;;;;;;;22.22;43.72;102467.78;5054617;28;19959;-75
2023/05/27 10:58:17;;;;;;;;;;;;;;;22.41;43.89;102458.88;5052075;28;19956;-76
2023/05/27 11:00:43;;;;;;;;;;;;;;;22.61;43.39;102449.84;5029756;28;20007;-76
2023/05/27 11:03:22;;;;;;;;;;;;;;;22.81;43.96;102448.91;5054213;28;20252;-75
2023/05/27 11:05:57;;;;;;;;;;;;;;;22.78;42.37;102435.56;5052853;28;19921;-75
2023/05/27 11:08:22;;;;;;;;;;;;;;;22.79;43.03;102437.28;5054269;28;19963;-73
2023/05/27 11:10:48;;;;;;;;;;;;;;;22.86;41.71;102423.41;5054215;28;19928;-73
2023/05/27 11:13:13;;;;;;;;;;;;;;;23.09;42.76;102434.94;5054115;28;19925;-73
2023/05/27 11:15:41;;;;;;;;;;;;;;;23.30;39.48;102428.47;5054271;28;19920;-73
2023/05/27 11:18:07;;;;;;;;;;;;;;;23.38;40.73;102419.97;5053716;28;20328;-73
2023/05/27 11:20:36;;;;;;;;;;;;;;;23.46;41.61;102416.88;5054194;28;19924;-73
2023/05/27 11:23:02;;;;;;;;;;;;;;;23.57;41.53;102420.78;5053824;28;20291;-73
2023/05/27 11:25:27;;;;;;;;;;;;;;;23.62;36.86;102415.16;5053797;28;19917;-73
2023/05/27 11:27:52;;;;;;;;;;;;;;;23.58;36.34;102417.13;5053725;28;20060;-73
2023/05/27 11:30:23;;;;;;;;;;;;;;;23.79;38.96;102417.88;5053818;28;19917;-73
2023/05/27 11:32:48;;;;;;;;;;;;;;;24.04;40.67;102408.44;5051952;28;19927;-73
2023/05/27 11:35:17;;;;;;;;;;;;;;;24.20;37.91;102403.06;5053163;28;19921;-73
2023/05/27 11:37:49;;;;;;;;;;;;;;;24.38;39.92;102396.66;5053592;28;20022;-73
2023/05/27 11:40:15;;;;;;;;;;;;;;;24.56;38.71;102392.06;5053670;28;19955;-73
2023/05/27 11:42:44;;;;;;;;;;;;;;;24.72;38.78;102396.59;5053444;28;19980;-74
2023/05/27 11:45:17;;;;;;;;;;;;;;;24.92;39.37;102388.19;5053509;28;19939;-74
2023/05/27 11:47:42;;;;;;;;;;;;;;;24.96;38.46;102387.06;5053430;28;20368;-73
2023/05/27 11:50:08;;;;;;;;;;;;;;;25.08;38.29;102386.34;5053495;28;19921;-74
2023/05/27 11:52:33;;;;;;;;;;;;;;;25.16;35.04;102376.91;5049687;28;19917;-74
2023/05/27 11:54:59;;;;;;;;;;;;;;;25.07;35.06;102376.50;5039276;28;19967;-73
2023/05/27 11:57:24;;;;;;;;;;;;;;;25.13;37.52;102380.66;5053244;28;20239;-73
2023/05/27 11:59:50;;;;;;;;;;;;;;;25.33;35.71;102359.66;5051294;28;19927;-73
2023/05/27 12:02:15;;;;;;;;;;;;;;;25.56;34.77;102356.41;5052946;28;20244;-74
2023/05/27 12:04:41;;;;;;;;;;;;;;;25.75;36.00;102350.72;5053047;28;19920;-73
2023/05/27 12:07:06;;;;;;;;;;;;;;;26.00;37.86;102344.66;5053155;28;19921;-73
2023/05/27 12:09:32;;;;;;;;;;;;;;;26.13;35.83;102351.03;5051676;28;20083;-73
2023/05/27 12:11:57;;;;;;;;;;;;;;;26.13;34.85;102347.47;5052844;28;19935;-74
2023/05/27 12:14:22;;;;;;;;;;;;;;;26.28;34.41;102342.88;5052939;28;19927;-74
2023/05/27 12:16:48;;;;;;;;;;;;;;;26.53;35.56;102342.19;5051691;28;19921;-74
2023/05/27 12:19:13;;;;;;;;;;;;;;;26.73;33.81;102340.88;5051451;28;19925;-73
2023/05/27 12:21:39;;;;;;;;;;;;;;;26.75;35.43;102333.50;5052841;28;20032;-73
2023/05/27 12:24:05;;;;;;;;;;;;;;;26.94;36.32;102331.28;5052520;28;19917;-74
2023/05/27 12:26:31;;;;;;;;;;;;;;;27.16;31.94;102327.97;5052882;28;19917;-74
2023/05/27 12:28:56;;;;;;;;;;;;;;;27.35;31.46;102327.59;5052314;28;19923;-74
2023/05/27 12:31:22;;;;;;;;;;;;;;;27.42;36.09;102320.78;5047295;28;20281;-74
2023/05/27 12:33:48;;;;;;;;;;;;;;;27.49;34.53;102310.31;5052504;28;19920;-74
2023/05/27 12:36:14;;;;;;;;;;;;;;;27.45;34.55;102319.69;5051206;28;19928;-74
2023/05/27 12:38:40;;;;;;;;;;;;;;;27.42;33.08;102311.72;5059381;28;19917;-73
2023/05/27 12:41:05;;;;;;;;;;;;;;;27.42;34.62;102304.44;5052325;28;20278;-74
2023/05/27 12:43:31;;;;;;;;;;;;;;;27.59;34.60;102302.38;5051921;28;19972;-73
2023/05/27 12:45:56;;;;;;;;;;;;;;;27.85;33.61;102306.00;5051637;28;19921;-73